Meteo Giornale » Osservazioni meteo Stati Uniti (USA) » Pontiac Oakland Co
ore: 13:53 - Osservazioni Meteo Pontiac Oakland Co
Lat. 42° 39' N Lon. 83° 24' W Alt. 299 metri s.l.m.
32 °C
Molto Nuvoloso
Temp. 24 Ore
22 °C
32 °C
Ovest/Nord-Ovest
11.1 Km/h
Dew point 23 °C
Umidità 59 %
Visibilità 10 Km
Il sole sorge alle ore 06:58
Il sole tramonta alle ore 20:08
| Data e Ora | Cielo e Fenomeni | T °C | DP °C | Um. % | Pres. hPa | Vis. km | Vento km/h | |
|---|---|---|---|---|---|---|---|---|
| Oggi h: 13:53 | Molto Nuvoloso | 32 | 23 | 59 | 1014 | 10 | O/NO 11.1 | |
| Oggi h: 12:53 | Molto Nuvoloso | 31 | 23 | 62 | 1015 | 10 | N 9.3 | |
| Oggi h: 11:53 | Molto Nuvoloso | 29 | 23 | 70 | 1015 | 10 | N 7.4 | |
| Oggi h: 10:53 | Molto Nuvoloso | 27 | 22 | 74 | 1015 | 10 | SO 7.4 | |
| Oggi h: 09:53 | Molto Nuvoloso | 26 | 21 | 73 | 1015 | 10 | O/NO 9.3 | |
| Oggi h: 08:53 | Nuvoloso | 24 | 21 | 83 | 1015 | 14 | O 7.4 | |
| Oggi h: 07:53 | Nebbia | 22 | 21 | 94 | 1015 | 11 | N 0 | |
| Oggi h: 06:53 | Nebbia | 22 | 21 | 94 | 1015 | 11 | N 5.5 | |
| Oggi h: 05:53 | Molto Nuvoloso | 22 | 21 | 94 | 1014 | 13 | N 5.5 | |
| Oggi h: 04:53 | Sereno | 22 | 21 | 94 | 1014 | 10 | N 5.5 | |
| Oggi h: 03:53 | Sereno | 23 | 21 | 88 | 1014 | 10 | O/SO 7.4 | |
| Oggi h: 02:53 | Sereno | 23 | 21 | 88 | 1014 | 10 | SO 9.3 | |
| Oggi h: 01:53 | Sereno | 23 | 21 | 88 | 1015 | 10 | O/SO 7.4 | |
| Oggi h: 00:53 | Sereno | 24 | 21 | 83 | 1015 | 10 | O/SO 7.4 | |
| Ieri h: 23:53 | Nuvoloso | 24 | 20 | 78 | 1014 | 10 | SO 9.3 | |
| Ieri h: 22:53 | Nuvoloso | 24 | 19 | 73 | 1015 | 10 | S/SO 9.3 | |
| Ieri h: 21:53 | Molto Nuvoloso | 24 | 18 | 69 | 1015 | 10 | S/SO 9.3 | |
| Ieri h: 20:53 | Coperto | 23 | 19 | 78 | 1014 | 10 | SO 7.4 | |
| Ieri h: 19:53 | Coperto | 23 | 20 | 83 | 1014 | 10 | S 7.4 | |
| Ieri h: 18:53 | Coperto | 24 | 20 | 78 | 1014 | 10 | S 13 | |
| Ieri h: 17:53 | Pioggia | 24 | 20 | 78 | 1015 | 10 | SO 11.1 | |
| Ieri h: 16:53 | Pioggia | 26 | 21 | 73 | 1016 | 10 | S/SE 11.1 | |
| Ieri h: 15:53 | Pioggia | 25 | 21 | 78 | 1016 | 10 | E/SE 13 | |
| Ieri h: 14:53 | Coperto | 26 | 19 | 65 | 1017 | 10 | N 5.5 | |



